Terminal Aerodrome Forecast
Issued by NWS Norman, OK

Home | Current Version | Previous Version | Text Only | Print | Product List | Glossary On
Versions: 1 2 3 4 5 6 7 8 9 10 11 12 13 14 15 16 17 18 19 20 21 22 23 24
000
FTUS44 KOUN 230525
TAFOKC
TAF
KOKC 230525Z 2306/2406 14010KT 4SM -DZ BR OVC004
     FM231300 15014KT 3SM RA BR OVC004
      TEMPO 2319/2323 2SM -TSRA BKN004 OVC012CB=

USA.gov is the U.S. government's official web portal to all federal, state and local government web resources and services.